Time;durP1;ratioP1;P1;durP2;ratioP2;P2;SDS_P1;SDS_P2;PMS_P1;PMS_P2;Temp;Humidity;BMP_temperature;BMP_pressure;BME280_temperature;BME280_humidity;BME280_pressure;Samples;Min_cycle;Max_cycle;Signal;HPM_P1;HPM_P2
2022/10/30 00:01:31;;;;;;;8.82;4.60;;;;;;;7.62;70.72;100152.25;4913034;29;20028;-93
2022/10/30 00:03:57;;;;;;;8.88;4.53;;;;;;;7.57;70.69;100136.84;4908723;29;20039;-93
2022/10/30 00:06:22;;;;;;;11.27;4.32;;;;;;;7.58;70.15;100141.16;4893899;29;20036;-91
2022/10/30 00:08:47;;;;;;;8.20;3.90;;;;;;;7.44;71.11;100143.22;4892512;29;20023;-93
2022/10/30 00:11:13;;;;;;;6.82;5.13;;;;;;;7.43;70.59;100146.94;4901756;29;20023;-93
2022/10/30 00:13:38;;;;;;;7.47;4.50;;;;;;;7.45;70.33;100144.84;4911558;29;20030;-93
2022/10/30 00:16:05;;;;;;;8.50;4.95;;;;;;;7.39;71.12;100143.09;4900590;29;20054;-93
2022/10/30 00:18:31;;;;;;;9.77;4.65;;;;;;;7.40;71.12;100139.34;4892188;29;20031;-93
2022/10/30 00:20:56;;;;;;;8.48;4.45;;;;;;;7.35;71.13;100125.03;4921765;29;20171;-93
2022/10/30 00:23:22;;;;;;;9.05;4.55;;;;;;;7.31;71.54;100131.88;4909296;29;20039;-93
2022/10/30 00:25:47;;;;;;;6.03;4.07;;;;;;;7.19;70.99;100107.75;4901158;29;20514;-93
2022/10/30 00:28:13;;;;;;;6.65;4.70;;;;;;;7.34;70.93;100132.22;4908800;29;20039;-92
2022/10/30 00:30:38;;;;;;;7.50;4.35;;;;;;;7.09;71.46;100113.63;4910271;29;20051;-94
2022/10/30 00:33:04;;;;;;;10.48;4.68;;;;;;;7.14;71.33;100119.13;4904133;29;20039;-93
2022/10/30 00:35:30;;;;;;;7.72;4.70;;;;;;;7.06;71.82;100112.22;4920983;29;20118;-92
2022/10/30 00:37:55;;;;;;;7.20;4.85;;;;;;;7.02;72.00;100118.28;4900244;29;20059;-92
2022/10/30 00:40:21;;;;;;;8.90;4.57;;;;;;;7.00;72.11;100118.50;4897440;29;20047;-92
2022/10/30 00:42:46;;;;;;;6.70;4.32;;;;;;;6.99;71.95;100116.03;4918281;29;20111;-92
2022/10/30 00:45:13;;;;;;;9.80;5.88;;;;;;;6.98;71.88;100127.81;4917019;29;20031;-93
2022/10/30 00:47:59;;;;;;;7.25;4.63;;;;;;;6.96;71.74;100111.97;4920395;29;20450;-92
2022/10/30 00:50:32;;;;;;;7.93;4.72;;;;;;;7.13;71.65;100127.38;4916155;29;20027;-93
2022/10/30 00:52:58;;;;;;;8.57;4.63;;;;;;;7.25;71.31;100129.06;4909382;29;20035;-93
2022/10/30 00:55:31;;;;;;;8.20;4.78;;;;;;;7.13;71.42;100111.31;4945364;29;20098;-93
2022/10/30 00:57:57;;;;;;;9.05;4.85;;;;;;;6.92;71.85;100094.72;4911188;29;20402;-93
2022/10/30 01:00:22;;;;;;;8.55;5.18;;;;;;;6.92;72.28;100101.94;4916486;29;20031;-93
2022/10/30 01:02:48;;;;;;;11.40;5.22;;;;;;;6.85;71.83;100085.97;4897202;29;20058;-93
2022/10/30 01:05:15;;;;;;;9.60;5.03;;;;;;;6.96;72.12;100108.47;4918428;29;20031;-93
2022/10/30 01:07:41;;;;;;;7.57;4.82;;;;;;;6.81;72.18;100076.75;4922121;29;20031;-93
2022/10/30 01:10:07;;;;;;;7.90;5.07;;;;;;;6.90;72.24;100086.09;4903824;29;20090;-92
2022/10/30 01:12:33;;;;;;;9.52;5.07;;;;;;;7.10;71.34;100093.84;4899028;29;20538;-94
2022/10/30 01:14:58;;;;;;;8.35;5.15;;;;;;;7.13;71.38;100093.38;4913291;29;20019;-94
2022/10/30 01:18:01;;;;;;;8.75;4.75;;;;;;;7.14;71.77;100107.59;4906110;29;20486;-93
2022/10/30 01:20:55;;;;;;;10.02;5.72;;;;;;;6.99;72.09;100092.78;4942066;29;20027;-91
2022/10/30 01:23:36;;;;;;;9.13;5.05;;;;;;;6.98;72.39;100103.69;4925911;29;20046;-93
2022/10/30 01:26:40;;;;;;;9.50;5.55;;;;;;;6.79;71.71;100078.84;4951673;29;20094;-92
2022/10/30 01:29:05;;;;;;;7.10;4.53;;;;;;;6.87;72.18;100094.59;4917474;29;20042;-93
2022/10/30 01:31:44;;;;;;;9.35;4.60;;;;;;;6.84;72.25;100095.81;4938249;29;20031;-93
2022/10/30 01:34:17;;;;;;;9.85;4.50;;;;;;;6.80;71.79;100096.50;4922391;29;20178;-95
2022/10/30 01:36:49;;;;;;;8.95;5.53;;;;;;;6.63;72.61;100075.72;4936493;29;20028;-94
2022/10/30 01:39:23;;;;;;;7.93;4.68;;;;;;;6.62;72.42;100066.06;4912404;29;20034;-92
2022/10/30 01:41:49;;;;;;;10.18;5.07;;;;;;;6.64;72.30;100073.84;4919564;29;20562;-93
2022/10/30 01:44:41;;;;;;;8.70;4.97;;;;;;;6.66;72.08;100080.63;4902454;29;21461;-92
2022/10/30 01:47:25;;;;;;;;;;;;;;;6.75;72.02;100085.69;4911663;29;20142;-93
2022/10/30 01:49:50;;;;;;;7.93;4.65;;;;;;;6.71;71.98;100084.50;4957429;29;20383;-93
2022/10/30 01:52:27;;;;;;;10.02;4.63;;;;;;;6.55;72.36;100059.16;4942496;29;20122;-92
2022/10/30 01:55:24;;;;;;;11.77;5.00;;;;;;;6.65;72.32;100076.31;4913159;29;20031;-92
2022/10/30 01:58:07;;;;;;;8.43;4.68;;;;;;;6.64;72.75;100071.19;4934163;29;20045;-92
2022/10/30 02:00:32;;;;;;;6.70;4.07;;;;;;;6.56;72.18;100068.84;4930855;29;20031;-92
2022/10/30 02:02:57;;;;;;;11.45;5.72;;;;;;;6.55;72.04;100065.31;4896211;29;20482;-92
2022/10/30 02:05:36;;;;;;;7.05;4.53;;;;;;;6.62;71.71;100057.22;4898996;29;20036;-93
2022/10/30 02:08:02;;;;;;;11.18;5.10;;;;;;;6.59;72.21;100055.81;4911052;29;20062;-92
2022/10/30 02:10:28;;;;;;;9.23;4.97;;;;;;;6.53;72.16;100063.91;4893713;29;20035;-93
2022/10/30 02:12:54;;;;;;;10.55;5.30;;;;;;;6.62;72.55;100071.44;4895337;29;20038;-92
2022/10/30 02:15:19;;;;;;;9.02;5.00;;;;;;;6.64;72.22;100074.69;4911175;29;20035;-93
2022/10/30 02:17:45;;;;;;;9.32;4.75;;;;;;;6.72;71.57;100070.88;4905929;29;20105;-93
2022/10/30 02:20:18;;;;;;;7.38;5.03;;;;;;;6.61;71.61;100055.59;4927752;29;20085;-92
2022/10/30 02:22:43;;;;;;;13.00;5.10;;;;;;;6.50;72.18;100061.72;4913130;29;20118;-92
2022/10/30 02:25:09;;;;;;;9.15;5.13;;;;;;;6.49;72.16;100063.53;4922414;29;20031;-93
2022/10/30 02:27:34;;;;;;;7.80;5.13;;;;;;;6.43;72.34;100056.41;4912606;29;20031;-94
2022/10/30 02:30:00;;;;;;;10.50;4.95;;;;;;;6.37;72.25;100055.47;4918758;29;20054;-94
2022/10/30 02:32:25;;;;;;;10.25;5.55;;;;;;;6.38;72.63;100057.09;4906134;29;20046;-94
2022/10/30 02:34:51;;;;;;;10.98;5.55;;;;;;;6.39;72.27;100063.25;4895877;29;20094;-94
2022/10/30 02:37:16;;;;;;;11.82;5.55;;;;;;;6.39;72.26;100065.94;4922031;29;20019;-93
2022/10/30 02:39:42;;;;;;;9.90;4.88;;;;;;;6.34;72.46;100063.94;4907937;29;20035;-93
2022/10/30 02:42:07;;;;;;;9.45;5.22;;;;;;;6.35;72.78;100070.09;4905161;29;20429;-94
2022/10/30 02:44:33;;;;;;;13.30;7.57;;;;;;;6.42;72.63;100079.69;4930898;29;20027;-95
2022/10/30 02:46:58;;;;;;;9.82;4.88;;;;;;;6.28;72.38;100059.47;4903142;29;20643;-95
2022/10/30 02:49:26;;;;;;;9.40;5.20;;;;;;;6.36;72.57;100069.06;4906403;29;20031;-96
2022/10/30 02:51:51;;;;;;;9.35;5.93;;;;;;;6.35;72.43;100075.44;4905178;29;20467;-95
2022/10/30 02:54:17;;;;;;;7.85;5.05;;;;;;;6.39;72.11;100057.91;4889141;29;20051;-95
2022/10/30 02:56:42;;;;;;;8.35;4.65;;;;;;;6.45;72.14;100065.03;4919949;29;20448;-95
2022/10/30 02:59:08;;;;;;;9.63;5.55;;;;;;;6.33;72.28;100056.13;4910713;29;20069;-95
2022/10/30 03:01:33;;;;;;;9.13;5.05;;;;;;;6.26;72.36;100056.19;4915927;29;20027;-95
2022/10/30 03:03:59;;;;;;;10.65;5.30;;;;;;;6.24;72.30;100053.75;4915120;29;20039;-96
2022/10/30 03:06:24;;;;;;;10.85;5.40;;;;;;;6.17;72.51;100058.38;4919255;29;20038;-95
2022/10/30 03:08:50;;;;;;;9.23;5.28;;;;;;;6.13;72.09;100051.81;4921152;29;20027;-95
2022/10/30 03:11:16;;;;;;;10.82;6.10;;;;;;;6.23;72.02;100070.84;4894895;29;20023;-95
2022/10/30 03:13:42;;;;;;;11.68;6.03;;;;;;;6.06;71.72;100046.56;4912561;29;20031;-96
2022/10/30 03:16:10;;;;;;;9.57;6.03;;;;;;;6.14;72.16;100058.78;4903700;29;20477;-94
2022/10/30 03:18:35;;;;;;;9.02;5.22;;;;;;;6.17;72.18;100054.88;4920626;29;20062;-95
2022/10/30 03:21:03;;;;;;;11.13;6.03;;;;;;;6.18;72.03;100051.16;4923758;29;20030;-94
2022/10/30 03:23:31;;;;;;;11.25;5.05;;;;;;;6.20;72.29;100060.56;4914949;29;20441;-95
2022/10/30 03:25:57;;;;;;;8.73;5.68;;;;;;;6.18;72.18;100048.47;4906788;29;20035;-95
2022/10/30 03:28:23;;;;;;;9.30;5.68;;;;;;;6.18;72.12;100053.81;4931008;29;20043;-96
2022/10/30 03:30:49;;;;;;;17.27;6.15;;;;;;;6.25;72.19;100065.28;4909041;29;20026;-95
2022/10/30 03:33:14;;;;;;;10.07;5.75;;;;;;;6.21;72.19;100058.75;4897870;29;20471;-95
2022/10/30 03:35:42;;;;;;;9.50;6.00;;;;;;;5.97;72.15;100026.47;4918078;29;20035;-94
2022/10/30 03:38:08;;;;;;;11.88;5.57;;;;;;;6.10;72.22;100056.78;4907056;29;20062;-94
2022/10/30 03:40:33;;;;;;;10.65;5.60;;;;;;;6.10;71.50;100044.25;4919468;29;20073;-94
2022/10/30 03:42:59;;;;;;;9.80;5.22;;;;;;;6.15;71.81;100049.75;4905508;29;20047;-95
2022/10/30 03:45:24;;;;;;;9.52;5.55;;;;;;;6.18;72.07;100054.63;4918140;29;20035;-95
2022/10/30 03:47:50;;;;;;;10.52;5.10;;;;;;;6.05;71.70;100044.09;4909268;29;20446;-96
2022/10/30 03:50:17;;;;;;;8.73;5.18;;;;;;;6.14;71.80;100060.66;4910269;29;20133;-95
2022/10/30 03:52:42;;;;;;;8.32;5.57;;;;;;;6.12;72.33;100055.56;4923599;29;20123;-95
2022/10/30 03:55:08;;;;;;;10.75;4.97;;;;;;;6.29;71.53;100063.78;4918141;29;20482;-94
2022/10/30 03:57:37;;;;;;;13.30;5.07;;;;;;;6.37;71.13;100063.50;4911388;29;20059;-94
2022/10/30 04:00:03;;;;;;;7.20;4.85;;;;;;;6.22;72.25;100061.16;4906468;29;20516;-94
2022/10/30 04:02:29;;;;;;;10.05;5.60;;;;;;;6.21;71.35;100043.50;4910937;29;20521;-95
2022/10/30 04:04:54;;;;;;;15.00;6.03;;;;;;;6.20;71.75;100043.72;4903258;29;20071;-94
2022/10/30 04:07:22;;;;;;;10.27;5.35;;;;;;;6.26;71.29;100035.63;4919116;29;20028;-94
2022/10/30 04:09:48;;;;;;;8.18;5.63;;;;;;;6.43;71.31;100045.72;4908097;29;20043;-94
2022/10/30 04:12:13;;;;;;;13.18;6.07;;;;;;;6.38;71.51;100042.91;4915239;29;20028;-95
2022/10/30 04:14:39;;;;;;;11.05;6.35;;;;;;;6.31;71.27;100034.13;4904182;29;20063;-95
2022/10/30 04:17:07;;;;;;;15.13;6.93;;;;;;;6.32;71.29;100039.25;4911701;29;20470;-95
2022/10/30 04:19:33;;;;;;;11.95;6.85;;;;;;;6.26;71.90;100035.63;4907657;28;20031;-94
2022/10/30 04:21:58;;;;;;;11.60;6.18;;;;;;;6.25;71.37;100050.03;4921402;29;20059;-95
2022/10/30 04:24:24;;;;;;;17.40;7.20;;;;;;;6.29;71.38;100039.72;4919698;29;20036;-95
2022/10/30 04:26:49;;;;;;;7.63;4.70;;;;;;;6.43;71.27;100037.69;4900028;29;20059;-94
2022/10/30 04:29:15;;;;;;;9.35;5.70;;;;;;;6.61;70.48;100044.88;4907275;29;20035;-94
2022/10/30 04:31:40;;;;;;;14.00;7.25;;;;;;;6.63;70.04;100018.72;4907340;29;20106;-94
2022/10/30 04:34:06;;;;;;;10.80;6.10;;;;;;;6.68;70.49;100025.03;4897373;29;20053;-95
2022/10/30 04:36:32;;;;;;;10.55;6.18;;;;;;;6.50;70.67;100016.22;4911707;29;20047;-94
2022/10/30 04:38:59;;;;;;;9.35;5.82;;;;;;;6.64;70.62;100053.28;4900222;29;20065;-94
2022/10/30 04:41:24;;;;;;;13.38;6.75;;;;;;;6.57;71.20;100041.84;4923647;29;20118;-94
2022/10/30 04:43:50;;;;;;;10.90;5.57;;;;;;;6.46;70.97;100038.06;4922792;29;20047;-93
2022/10/30 04:46:16;;;;;;;13.20;6.82;;;;;;;6.43;71.23;100037.69;4903655;29;20047;-93
2022/10/30 04:48:42;;;;;;;11.63;6.22;;;;;;;6.54;70.97;100036.13;4901152;29;20034;-94
2022/10/30 04:51:08;;;;;;;10.82;5.97;;;;;;;6.60;70.56;100035.22;4917473;29;20111;-96
2022/10/30 04:53:34;;;;;;;11.13;5.88;;;;;;;6.37;70.66;100017.19;4906372;29;20043;-96
2022/10/30 04:55:59;;;;;;;9.85;5.93;;;;;;;6.39;71.36;100049.88;4917584;29;20171;-94
2022/10/30 04:58:25;;;;;;;11.20;6.53;;;;;;;6.14;70.97;100029.38;4909795;29;20036;-95
2022/10/30 05:00:50;;;;;;;8.05;5.25;;;;;;;6.11;70.57;100026.34;4903951;29;20039;-95
2022/10/30 05:03:20;;;;;;;9.05;5.50;;;;;;;6.18;71.12;100029.75;4926239;29;20034;-95
2022/10/30 05:05:47;;;;;;;9.07;5.32;;;;;;;6.17;71.58;100041.50;4911934;29;20028;-95
2022/10/30 05:08:13;;;;;;;9.55;5.45;;;;;;;6.10;70.77;100038.91;4898427;29;20144;-96
2022/10/30 05:10:39;;;;;;;9.50;5.30;;;;;;;6.08;71.21;100022.28;4897205;29;20051;-96
2022/10/30 05:13:05;;;;;;;9.30;5.82;;;;;;;6.09;71.41;100029.25;4908863;29;20024;-96
2022/10/30 05:15:30;;;;;;;9.63;5.20;;;;;;;6.14;71.17;100031.25;4907391;29;20043;-96
2022/10/30 05:17:56;;;;;;;9.57;4.80;;;;;;;6.31;71.23;100044.84;4890910;29;20055;-96
2022/10/30 05:20:21;;;;;;;9.40;5.35;;;;;;;6.34;70.78;100031.03;4907149;29;20091;-94
2022/10/30 05:22:57;;;;;;;9.00;5.53;;;;;;;6.37;70.76;100034.06;4907343;29;20059;-95
2022/10/30 05:25:22;;;;;;;9.02;5.20;;;;;;;6.38;71.21;100043.72;4907003;29;20032;-94
2022/10/30 05:27:48;;;;;;;11.23;6.93;;;;;;;6.37;71.20;100042.09;4914761;29;20023;-95
2022/10/30 05:30:13;;;;;;;9.52;5.28;;;;;;;6.55;71.09;100049.28;4909366;29;20027;-93
2022/10/30 05:32:39;;;;;;;12.15;5.38;;;;;;;6.67;70.55;100052.00;4897197;29;20102;-96
2022/10/30 05:35:05;;;;;;;7.70;5.28;;;;;;;6.84;70.11;100049.50;4896852;29;20042;-95
2022/10/30 05:37:30;;;;;;;10.00;6.00;;;;;;;6.78;70.06;100034.38;4890436;29;20027;-95
2022/10/30 05:39:55;;;;;;;11.60;5.53;;;;;;;6.93;70.37;100048.16;4922631;29;20027;-96
2022/10/30 05:42:21;;;;;;;12.50;5.22;;;;;;;6.97;69.40;100033.28;4922515;29;20035;-94
2022/10/30 05:44:47;;;;;;;7.80;4.63;;;;;;;7.19;69.26;100041.59;4922388;29;20076;-95
2022/10/30 05:47:15;;;;;;;13.65;5.80;;;;;;;7.40;69.10;100045.59;4905904;29;20051;-94
2022/10/30 05:49:40;;;;;;;20.80;6.20;;;;;;;7.54;68.89;100061.47;4922969;29;20031;-96
2022/10/30 05:52:06;;;;;;;17.27;6.78;;;;;;;7.50;68.73;100039.66;4914607;29;20031;-95
2022/10/30 05:54:31;;;;;;;7.88;4.60;;;;;;;7.55;68.79;100020.22;4912328;29;20071;-94
2022/10/30 05:56:57;;;;;;;7.80;4.35;;;;;;;7.88;68.40;100041.88;4920323;29;20027;-94
2022/10/30 05:59:23;;;;;;;7.28;4.25;;;;;;;7.86;67.76;100017.19;4924286;29;20034;-94
2022/10/30 06:01:48;;;;;;;9.20;4.45;;;;;;;8.13;67.26;100042.69;4917811;29;20011;-94
2022/10/30 06:04:14;;;;;;;9.10;4.35;;;;;;;8.22;67.40;100049.31;4912160;29;20039;-94
2022/10/30 06:06:39;;;;;;;7.60;4.13;;;;;;;8.08;67.68;100036.16;4902074;29;20028;-95
2022/10/30 06:09:05;;;;;;;6.90;4.18;;;;;;;8.11;67.85;100021.44;4890755;29;20032;-94
2022/10/30 06:11:31;;;;;;;8.02;4.60;;;;;;;8.07;67.59;100010.41;4905761;29;20032;-96
2022/10/30 06:13:56;;;;;;;9.30;3.25;;;;;;;8.47;67.00;100041.81;4905618;29;20035;-95
2022/10/30 06:16:24;;;;;;;6.22;3.15;;;;;;;8.56;66.63;100028.84;4906324;29;20034;-92
2022/10/30 06:18:55;;;;;;;5.72;3.50;;;;;;;8.57;66.91;100046.59;4906368;29;20028;-93
2022/10/30 06:21:21;;;;;;;6.75;4.15;;;;;;;8.62;66.55;100035.94;4906641;29;20038;-93
2022/10/30 06:23:47;;;;;;;4.43;3.25;;;;;;;8.82;65.62;100037.34;4905334;29;20030;-94
2022/10/30 06:26:12;;;;;;;5.90;3.47;;;;;;;8.96;65.39;100030.63;4895869;29;20118;-94
2022/10/30 06:28:38;;;;;;;7.05;3.50;;;;;;;9.21;64.76;100045.56;4922947;29;20039;-94
2022/10/30 06:31:04;;;;;;;17.90;4.80;;;;;;;9.18;65.69;100043.38;4909465;29;20039;-93
2022/10/30 06:33:30;;;;;;;5.00;3.75;;;;;;;9.25;65.24;100039.47;4914936;29;20039;-94
2022/10/30 06:35:55;;;;;;;12.05;5.35;;;;;;;9.22;64.47;100039.97;4924063;29;20042;-94
2022/10/30 06:38:21;;;;;;;8.38;4.35;;;;;;;9.37;64.06;100035.91;4924609;29;20035;-93
2022/10/30 06:40:47;;;;;;;8.57;4.75;;;;;;;9.33;63.84;100032.88;4924645;29;20035;-94
2022/10/30 06:43:13;;;;;;;6.82;4.60;;;;;;;9.43;63.35;100022.31;4923427;29;20501;-94
2022/10/30 06:45:38;;;;;;;13.35;5.38;;;;;;;9.70;63.13;100045.84;4908525;29;20043;-94
2022/10/30 06:48:04;;;;;;;7.88;4.32;;;;;;;9.77;63.06;100035.72;4925210;29;20106;-93
2022/10/30 06:50:29;;;;;;;10.65;4.72;;;;;;;9.94;62.96;100041.09;4924600;29;20086;-94
2022/10/30 06:52:55;;;;;;;10.05;4.55;;;;;;;10.11;62.22;100039.16;4924415;29;20023;-94
2022/10/30 06:55:24;;;;;;;7.93;4.63;;;;;;;10.23;62.03;100044.44;4924671;29;20027;-94
2022/10/30 06:57:54;;;;;;;10.40;4.65;;;;;;;10.36;61.44;100034.41;4924912;29;20020;-95
2022/10/30 07:00:19;;;;;;;7.07;4.22;;;;;;;10.44;61.19;100026.69;4924759;29;20110;-95
2022/10/30 07:02:54;;;;;;;7.18;4.80;;;;;;;10.59;60.67;100023.34;4923895;29;20057;-95
2022/10/30 07:05:22;;;;;;;9.43;4.80;;;;;;;10.72;60.36;100032.91;4924084;29;20030;-95
2022/10/30 07:07:48;;;;;;;8.65;4.95;;;;;;;10.79;60.47;100030.00;4898985;29;20482;-94
2022/10/30 07:10:13;;;;;;;7.05;4.32;;;;;;;10.80;60.36;100015.50;4910748;29;20144;-95
2022/10/30 07:12:39;;;;;;;5.55;4.05;;;;;;;11.01;60.22;100022.69;4908392;29;20545;-95
2022/10/30 07:15:05;;;;;;;9.45;4.50;;;;;;;11.08;60.00;100017.94;4895654;29;20034;-95
2022/10/30 07:17:31;;;;;;;7.82;4.65;;;;;;;11.23;59.69;100011.03;4907553;29;20054;-96
2022/10/30 07:19:56;;;;;;;7.65;4.80;;;;;;;11.29;59.34;100008.13;4907695;29;20023;-95
2022/10/30 07:22:22;;;;;;;7.00;4.20;;;;;;;11.43;59.13;100002.28;4908826;29;20031;-95
2022/10/30 07:24:47;;;;;;;10.48;4.80;;;;;;;11.67;58.87;100027.81;4908124;29;20050;-96
2022/10/30 07:27:13;;;;;;;8.30;4.80;;;;;;;11.64;58.51;100008.63;4915092;29;20019;-95
2022/10/30 07:29:38;;;;;;;7.28;4.00;;;;;;;11.90;58.46;100031.22;4918099;29;20036;-95
2022/10/30 07:32:04;;;;;;;7.22;4.60;;;;;;;11.92;58.27;100019.09;4921133;29;20533;-95
2022/10/30 07:34:33;;;;;;;15.07;4.72;;;;;;;12.07;58.07;100014.84;4901204;29;20068;-95
2022/10/30 07:36:58;;;;;;;7.25;4.15;;;;;;;12.12;57.69;100004.09;4909619;29;20039;-95
2022/10/30 07:39:24;;;;;;;6.50;3.75;;;;;;;12.10;57.63;99996.25;4914495;29;20380;-95
2022/10/30 07:41:49;;;;;;;7.22;3.22;;;;;;;12.30;57.01;99998.22;4919884;29;20500;-95
2022/10/30 07:44:15;;;;;;;11.40;3.22;;;;;;;12.45;56.85;100002.88;4920632;29;20028;-95
2022/10/30 07:46:40;;;;;;;6.82;3.90;;;;;;;12.48;56.81;99985.31;4921253;29;20074;-95
2022/10/30 07:49:06;;;;;;;9.15;4.55;;;;;;;12.61;56.64;99992.91;4925161;29;20409;-95
2022/10/30 07:51:31;;;;;;;11.07;4.95;;;;;;;12.80;56.45;100000.50;4895694;29;20124;-95
2022/10/30 07:53:57;;;;;;;5.30;4.10;;;;;;;12.92;56.17;99998.38;4910127;29;20089;-95
2022/10/30 07:56:22;;;;;;;11.10;3.92;;;;;;;13.02;55.77;99992.19;4919884;29;20030;-94
2022/10/30 07:58:48;;;;;;;8.30;4.05;;;;;;;13.08;55.45;99981.09;4919919;29;20032;-94
2022/10/30 08:01:13;;;;;;;7.63;4.75;;;;;;;13.14;55.73;99977.31;4920785;29;20027;-94
2022/10/30 08:03:39;;;;;;;6.43;4.15;;;;;;;13.29;55.21;99978.41;4921307;29;20489;-95
2022/10/30 08:06:05;;;;;;;11.30;4.80;;;;;;;13.42;55.28;99977.03;4904562;29;20429;-95
2022/10/30 08:08:36;;;;;;;10.02;4.47;;;;;;;13.48;54.71;99974.06;4918629;29;20028;-96
2022/10/30 08:11:05;;;;;;;8.80;5.15;;;;;;;13.63;54.41;99984.03;4904573;29;20067;-96
2022/10/30 08:13:30;;;;;;;7.55;5.35;;;;;;;13.77;54.12;99965.34;4890620;29;20024;-96
2022/10/30 08:15:56;;;;;;;9.07;4.75;;;;;;;13.89;52.97;99973.97;4916853;29;20031;-95
2022/10/30 08:18:21;;;;;;;9.40;4.93;;;;;;;13.90;52.86;99953.13;4923503;29;20027;-96
2022/10/30 08:20:49;;;;;;;8.55;4.80;;;;;;;14.02;52.77;99950.91;4905533;29;20027;-95
2022/10/30 08:23:16;;;;;;;7.70;4.35;;;;;;;14.10;53.00;99941.41;4896419;29;20038;-93
2022/10/30 08:25:42;;;;;;;10.05;5.07;;;;;;;14.13;52.93;99930.84;4891863;29;20031;-95
2022/10/30 08:28:07;;;;;;;10.30;5.05;;;;;;;14.41;52.67;99954.81;4904058;29;20039;-95
2022/10/30 08:30:34;;;;;;;8.55;4.38;;;;;;;14.44;52.53;99938.78;4920694;29;20067;-96
2022/10/30 08:33:01;;;;;;;8.13;4.30;;;;;;;14.55;52.02;99932.25;4920225;29;20027;-95
2022/10/30 08:35:27;;;;;;;8.15;3.92;;;;;;;14.73;51.77;99940.78;4920191;29;20027;-94
2022/10/30 08:37:56;;;;;;;9.88;4.25;;;;;;;14.84;51.42;99942.34;4919490;29;20054;-95
2022/10/30 08:40:22;;;;;;;8.43;4.35;;;;;;;14.86;51.83;99932.03;4904363;29;20107;-96
2022/10/30 08:42:54;;;;;;;8.80;3.92;;;;;;;15.03;51.26;99938.97;4919366;29;20430;-95
2022/10/30 08:45:20;;;;;;;6.30;3.65;;;;;;;15.16;50.75;99936.38;4919979;29;20027;-94
2022/10/30 08:47:46;;;;;;;6.82;4.80;;;;;;;15.15;50.84;99917.69;4903998;29;20038;-94
2022/10/30 08:50:11;;;;;;;6.80;4.50;;;;;;;15.32;50.98;99930.84;4903128;29;20038;-94
2022/10/30 08:52:37;;;;;;;6.15;3.65;;;;;;;15.43;50.80;99937.78;4912593;29;20039;-94
2022/10/30 08:55:02;;;;;;;6.90;4.78;;;;;;;15.59;50.08;99937.63;4903772;29;20483;-94
2022/10/30 08:57:39;;;;;;;7.93;4.53;;;;;;;15.58;49.79;99906.94;4906880;29;20046;-94
2022/10/30 09:00:06;;;;;;;4.65;3.13;;;;;;;15.77;49.38;99920.59;4939802;29;20089;-94
2022/10/30 09:02:32;;;;;;;4.90;3.03;;;;;;;15.98;48.82;99923.06;4935396;29;20063;-94
2022/10/30 09:05:00;;;;;;;5.55;3.35;;;;;;;15.92;48.80;99912.28;4906812;29;20031;-95
2022/10/30 09:07:25;;;;;;;4.45;2.80;;;;;;;16.17;48.56;99927.44;4911188;29;20032;-94
2022/10/30 09:09:57;;;;;;;6.95;3.45;;;;;;;16.20;48.24;99917.91;4915325;29;20095;-94
2022/10/30 09:12:22;;;;;;;5.25;3.42;;;;;;;16.24;47.77;99907.25;4891900;29;20098;-94
2022/10/30 09:14:50;;;;;;;6.45;3.45;;;;;;;16.38;47.31;99901.91;4892314;29;20102;-94
2022/10/30 09:17:16;;;;;;;5.38;3.38;;;;;;;16.46;47.23;99902.03;4907711;29;20019;-94
2022/10/30 09:19:41;;;;;;;8.60;2.97;;;;;;;16.52;47.07;99897.34;4891279;29;20027;-94
2022/10/30 09:22:07;;;;;;;5.00;2.78;;;;;;;16.67;47.15;99902.53;4907283;29;20048;-95
2022/10/30 09:24:32;;;;;;;5.57;2.83;;;;;;;16.71;47.12;99891.88;4916810;29;20055;-96
2022/10/30 09:26:58;;;;;;;6.72;2.92;;;;;;;16.76;46.16;99881.72;4901633;29;20039;-96
2022/10/30 09:29:23;;;;;;;6.50;3.05;;;;;;;16.88;46.06;99884.00;4911432;29;20478;-95
2022/10/30 09:31:49;;;;;;;5.45;2.88;;;;;;;17.03;46.43;99884.84;4919105;29;20122;-94
2022/10/30 09:34:14;;;;;;;3.85;2.50;;;;;;;17.08;45.51;99866.53;4907199;29;20031;-95
2022/10/30 09:36:42;;;;;;;4.90;2.85;;;;;;;17.23;45.84;99880.97;4906806;29;20031;-95
2022/10/30 09:39:09;;;;;;;3.65;2.67;;;;;;;17.23;45.34;99865.44;4907758;29;20043;-94
2022/10/30 09:41:53;;;;;;;5.50;3.22;;;;;;;17.40;45.52;99883.09;4906955;29;20063;-96
2022/10/30 09:44:43;;;;;;;5.22;2.65;;;;;;;17.48;44.65;99869.59;4923241;29;20037;-96
2022/10/30 09:47:36;;;;;;;4.95;2.50;;;;;;;17.60;44.42;99860.94;4923586;29;20522;-95
2022/10/30 09:50:17;;;;;;;4.50;2.58;;;;;;;17.65;43.86;99858.09;4939120;29;20156;-95
2022/10/30 09:53:04;;;;;;;4.05;2.03;;;;;;;17.68;43.95;99849.31;4926985;29;20077;-95
2022/10/30 09:56:05;;;;;;;4.18;2.53;;;;;;;17.80;43.39;99835.16;4912700;29;20031;-95
2022/10/30 09:58:52;;;;;;;3.90;2.13;;;;;;;18.08;42.08;99843.34;4928029;29;20031;-95
2022/10/30 10:01:26;;;;;;;3.10;2.22;;;;;;;18.07;42.19;99830.81;4943697;29;20034;-95
2022/10/30 10:04:02;;;;;;;3.95;2.20;;;;;;;18.26;42.06;99836.09;4917287;29;20106;-95
2022/10/30 10:06:28;;;;;;;3.20;2.20;;;;;;;18.18;41.60;99810.41;4938178;29;20028;-94
2022/10/30 10:09:03;;;;;;;4.38;2.17;;;;;;;18.40;41.11;99822.41;4904127;29;20050;-94
2022/10/30 10:11:35;;;;;;;5.55;2.33;;;;;;;18.43;41.31;99811.72;4910602;29;20027;-94
2022/10/30 10:14:07;;;;;;;;;;;;;;;18.61;40.72;99825.44;4927407;29;20485;-96
2022/10/30 10:16:36;;;;;;;3.65;1.83;;;;;;;18.51;39.98;99800.06;4941203;29;19910;-94
2022/10/30 10:19:18;;;;;;;2.83;1.70;;;;;;;18.74;39.42;99794.56;4909847;29;20039;-95
2022/10/30 10:21:58;;;;;;;6.38;2.28;;;;;;;18.74;39.64;99787.19;4910137;29;20020;-95
2022/10/30 10:24:28;;;;;;;2.45;1.95;;;;;;;18.83;39.75;99794.66;4910959;29;20043;-96
2022/10/30 10:27:09;;;;;;;3.05;2.00;;;;;;;18.86;39.56;99792.06;4940393;29;20038;-94
2022/10/30 10:29:43;;;;;;;3.28;1.65;;;;;;;19.04;39.28;99806.63;4926102;29;20058;-95
2022/10/30 10:32:45;;;;;;;4.47;2.10;;;;;;;19.16;38.32;99790.47;4941163;29;20046;-95
2022/10/30 10:35:22;;;;;;;4.40;1.90;;;;;;;19.19;38.50;99783.56;4891136;29;20477;-95
2022/10/30 10:38:01;;;;;;;4.25;2.15;;;;;;;19.28;38.66;99791.75;4925975;29;20031;-95
2022/10/30 10:40:44;;;;;;;6.53;2.17;;;;;;;19.27;38.44;99787.44;4941665;29;20023;-96
2022/10/30 10:43:24;;;;;;;6.60;2.10;;;;;;;19.43;38.51;99782.34;4910600;29;20030;-94
2022/10/30 10:46:09;;;;;;;6.68;2.17;;;;;;;19.47;38.16;99786.06;4941950;29;20395;-94
2022/10/30 10:48:47;;;;;;;10.00;2.45;;;;;;;19.49;38.34;99776.44;4938747;29;20062;-93
2022/10/30 10:51:19;;;;;;;5.60;4.03;;;;;;;19.53;38.40;99768.41;4920628;29;20069;-93
2022/10/30 10:53:59;;;;;;;3.47;2.17;;;;;;;19.51;38.11;99740.59;4905543;29;20031;-93
2022/10/30 10:56:33;;;;;;;5.05;2.22;;;;;;;19.57;38.76;99742.06;4942530;29;20410;-93
2022/10/30 10:59:01;;;;;;;4.50;2.35;;;;;;;19.74;38.14;99763.16;4902373;29;20035;-92
2022/10/30 11:01:36;;;;;;;5.38;2.22;;;;;;;19.68;38.23;99759.75;4909639;29;20064;-93
2022/10/30 11:04:04;;;;;;;4.38;2.08;;;;;;;19.65;37.34;99748.63;4930320;29;20409;-95
2022/10/30 11:06:34;;;;;;;7.10;2.40;;;;;;;19.79;37.23;99757.53;4899207;29;20115;-93
2022/10/30 11:09:20;;;;;;;6.00;2.58;;;;;;;19.93;36.98;99758.19;4912093;29;20036;-93
2022/10/30 11:11:51;;;;;;;2.38;1.70;;;;;;;19.92;36.66;99744.81;4909191;29;20042;-94
2022/10/30 11:14:26;;;;;;;3.28;2.05;;;;;;;19.96;36.99;99746.63;4892460;29;20034;-94
2022/10/30 11:17:23;;;;;;;3.70;2.00;;;;;;;20.03;36.09;99737.13;4914117;29;20153;-94
2022/10/30 11:19:57;;;;;;;3.22;1.48;;;;;;;20.02;35.59;99722.63;4903613;29;20126;-93
2022/10/30 11:22:42;;;;;;;2.83;1.30;;;;;;;20.28;33.22;99738.22;4904271;29;20035;-94
2022/10/30 11:25:17;;;;;;;3.55;1.55;;;;;;;20.41;33.00;99736.41;4920117;29;20054;-95
2022/10/30 11:27:44;;;;;;;1.75;1.10;;;;;;;20.48;32.79;99734.81;4936783;29;20130;-93
2022/10/30 11:30:17;;;;;;;4.78;1.85;;;;;;;20.49;33.81;99727.38;4909577;29;20183;-93
2022/10/30 11:32:46;;;;;;;2.53;1.55;;;;;;;20.53;34.03;99733.81;4901801;29;20098;-92
2022/10/30 11:35:16;;;;;;;5.78;1.88;;;;;;;20.56;34.16;99719.47;4909271;29;20106;-90
2022/10/30 11:37:43;;;;;;;4.25;1.70;;;;;;;20.63;33.35;99711.59;4927901;29;20475;-89
2022/10/30 11:40:08;;;;;;;3.38;1.38;;;;;;;20.76;32.50;99713.31;4902526;29;20141;-89